sensor_id;sensor_type;location;lat;lon;timestamp;P1;durP1;ratioP1;P2;durP2;ratioP2
45476;SDS011;31958;51.756;-2.556;2023-04-15T00:01:37;6.95;;;2.50;;
45476;SDS011;31958;51.756;-2.556;2023-04-15T00:04:09;7.85;;;2.15;;
45476;SDS011;31958;51.756;-2.556;2023-04-15T00:06:35;6.15;;;2.50;;
45476;SDS011;31958;51.756;-2.556;2023-04-15T00:09:07;7.30;;;2.17;;
45476;SDS011;31958;51.756;-2.556;2023-04-15T00:11:40;4.82;;;2.03;;
45476;SDS011;31958;51.756;-2.556;2023-04-15T00:14:05;6.38;;;2.45;;
45476;SDS011;31958;51.756;-2.556;2023-04-15T00:16:38;11.07;;;2.72;;
45476;SDS011;31958;51.756;-2.556;2023-04-15T00:19:10;7.22;;;2.30;;
45476;SDS011;31958;51.756;-2.556;2023-04-15T00:21:35;7.78;;;3.40;;
45476;SDS011;31958;51.756;-2.556;2023-04-15T00:24:07;12.02;;;2.70;;
45476;SDS011;31958;51.756;-2.556;2023-04-15T00:26:40;6.88;;;2.55;;
45476;SDS011;31958;51.756;-2.556;2023-04-15T00:29:05;5.45;;;2.08;;
45476;SDS011;31958;51.756;-2.556;2023-04-15T00:31:36;5.95;;;2.47;;
45476;SDS011;31958;51.756;-2.556;2023-04-15T00:34:08;6.25;;;2.00;;
45476;SDS011;31958;51.756;-2.556;2023-04-15T00:36:34;7.00;;;2.45;;
45476;SDS011;31958;51.756;-2.556;2023-04-15T00:39:06;5.50;;;2.30;;
45476;SDS011;31958;51.756;-2.556;2023-04-15T00:41:40;5.13;;;2.35;;
45476;SDS011;31958;51.756;-2.556;2023-04-15T00:44:06;5.05;;;2.00;;
45476;SDS011;31958;51.756;-2.556;2023-04-15T00:46:37;5.40;;;2.22;;
45476;SDS011;31958;51.756;-2.556;2023-04-15T00:49:09;5.30;;;2.08;;
45476;SDS011;31958;51.756;-2.556;2023-04-15T00:51:35;7.10;;;2.08;;
45476;SDS011;31958;51.756;-2.556;2023-04-15T00:54:07;6.68;;;2.00;;
45476;SDS011;31958;51.756;-2.556;2023-04-15T00:56:40;4.22;;;1.63;;
45476;SDS011;31958;51.756;-2.556;2023-04-15T00:59:06;10.02;;;2.00;;
45476;SDS011;31958;51.756;-2.556;2023-04-15T01:01:38;3.90;;;1.73;;
45476;SDS011;31958;51.756;-2.556;2023-04-15T01:04:11;13.85;;;2.17;;
45476;SDS011;31958;51.756;-2.556;2023-04-15T01:06:37;3.67;;;1.88;;
45476;SDS011;31958;51.756;-2.556;2023-04-15T01:09:08;4.35;;;2.00;;
45476;SDS011;31958;51.756;-2.556;2023-04-15T01:11:41;5.20;;;1.90;;
45476;SDS011;31958;51.756;-2.556;2023-04-15T01:14:06;4.60;;;1.92;;
45476;SDS011;31958;51.756;-2.556;2023-04-15T01:16:39;8.20;;;2.40;;
45476;SDS011;31958;51.756;-2.556;2023-04-15T01:19:12;5.57;;;2.50;;
45476;SDS011;31958;51.756;-2.556;2023-04-15T01:21:38;7.10;;;2.40;;
45476;SDS011;31958;51.756;-2.556;2023-04-15T01:24:11;6.60;;;2.40;;
45476;SDS011;31958;51.756;-2.556;2023-04-15T01:26:44;5.70;;;2.03;;
45476;SDS011;31958;51.756;-2.556;2023-04-15T01:29:10;6.97;;;2.50;;
45476;SDS011;31958;51.756;-2.556;2023-04-15T01:31:52;6.00;;;2.38;;
45476;SDS011;31958;51.756;-2.556;2023-04-15T01:34:24;7.72;;;2.88;;
45476;SDS011;31958;51.756;-2.556;2023-04-15T01:36:56;8.75;;;2.78;;
45476;SDS011;31958;51.756;-2.556;2023-04-15T01:39:22;8.45;;;2.45;;
45476;SDS011;31958;51.756;-2.556;2023-04-15T01:41:53;7.28;;;2.97;;
45476;SDS011;31958;51.756;-2.556;2023-04-15T01:44:25;7.00;;;2.83;;
45476;SDS011;31958;51.756;-2.556;2023-04-15T01:46:51;11.25;;;2.83;;
45476;SDS011;31958;51.756;-2.556;2023-04-15T01:49:24;7.70;;;2.67;;
45476;SDS011;31958;51.756;-2.556;2023-04-15T01:51:56;8.35;;;2.25;;
45476;SDS011;31958;51.756;-2.556;2023-04-15T01:54:22;3.60;;;1.92;;
45476;SDS011;31958;51.756;-2.556;2023-04-15T01:56:54;6.18;;;2.55;;
45476;SDS011;31958;51.756;-2.556;2023-04-15T01:59:27;9.45;;;2.65;;
45476;SDS011;31958;51.756;-2.556;2023-04-15T02:01:53;13.82;;;3.25;;
45476;SDS011;31958;51.756;-2.556;2023-04-15T02:04:25;6.68;;;2.80;;
45476;SDS011;31958;51.756;-2.556;2023-04-15T02:06:56;17.63;;;3.00;;
45476;SDS011;31958;51.756;-2.556;2023-04-15T02:09:22;5.88;;;2.90;;
45476;SDS011;31958;51.756;-2.556;2023-04-15T02:11:54;5.97;;;2.45;;
45476;SDS011;31958;51.756;-2.556;2023-04-15T02:14:25;8.68;;;2.70;;
45476;SDS011;31958;51.756;-2.556;2023-04-15T02:16:51;10.48;;;2.38;;
45476;SDS011;31958;51.756;-2.556;2023-04-15T02:19:36;5.60;;;2.17;;
45476;SDS011;31958;51.756;-2.556;2023-04-15T02:22:03;8.57;;;2.67;;
45476;SDS011;31958;51.756;-2.556;2023-04-15T02:24:45;10.18;;;2.92;;
45476;SDS011;31958;51.756;-2.556;2023-04-15T02:27:14;7.10;;;2.40;;
45476;SDS011;31958;51.756;-2.556;2023-04-15T02:29:53;16.60;;;2.60;;
45476;SDS011;31958;51.756;-2.556;2023-04-15T02:32:19;5.57;;;2.25;;
45476;SDS011;31958;51.756;-2.556;2023-04-15T02:34:47;5.65;;;2.47;;
45476;SDS011;31958;51.756;-2.556;2023-04-15T02:37:25;9.68;;;2.03;;
45476;SDS011;31958;51.756;-2.556;2023-04-15T02:39:52;6.82;;;2.55;;
45476;SDS011;31958;51.756;-2.556;2023-04-15T02:42:17;5.25;;;2.50;;
45476;SDS011;31958;51.756;-2.556;2023-04-15T02:44:58;6.93;;;2.42;;
45476;SDS011;31958;51.756;-2.556;2023-04-15T02:47:24;7.75;;;2.17;;
45476;SDS011;31958;51.756;-2.556;2023-04-15T02:49:49;5.07;;;2.00;;
45476;SDS011;31958;51.756;-2.556;2023-04-15T02:52:30;4.55;;;1.80;;
45476;SDS011;31958;51.756;-2.556;2023-04-15T02:54:56;6.15;;;2.03;;
45476;SDS011;31958;51.756;-2.556;2023-04-15T02:57:29;5.30;;;1.63;;
45476;SDS011;31958;51.756;-2.556;2023-04-15T03:00:02;8.50;;;2.25;;
45476;SDS011;31958;51.756;-2.556;2023-04-15T03:02:32;3.58;;;2.00;;
45476;SDS011;31958;51.756;-2.556;2023-04-15T03:05:13;6.72;;;2.40;;
45476;SDS011;31958;51.756;-2.556;2023-04-15T03:07:38;9.68;;;2.13;;
45476;SDS011;31958;51.756;-2.556;2023-04-15T03:10:07;5.63;;;2.22;;
45476;SDS011;31958;51.756;-2.556;2023-04-15T03:12:45;2.60;;;1.70;;
45476;SDS011;31958;51.756;-2.556;2023-04-15T03:15:11;2.90;;;1.45;;
45476;SDS011;31958;51.756;-2.556;2023-04-15T03:17:37;7.57;;;2.30;;
45476;SDS011;31958;51.756;-2.556;2023-04-15T03:20:15;4.28;;;1.90;;
45476;SDS011;31958;51.756;-2.556;2023-04-15T03:22:41;3.20;;;2.13;;
45476;SDS011;31958;51.756;-2.556;2023-04-15T03:25:06;4.78;;;1.67;;
45476;SDS011;31958;51.756;-2.556;2023-04-15T03:27:45;4.65;;;1.63;;
45476;SDS011;31958;51.756;-2.556;2023-04-15T03:30:11;6.60;;;2.00;;
45476;SDS011;31958;51.756;-2.556;2023-04-15T03:32:37;6.35;;;2.05;;
45476;SDS011;31958;51.756;-2.556;2023-04-15T03:35:15;3.58;;;2.00;;
45476;SDS011;31958;51.756;-2.556;2023-04-15T03:37:41;8.55;;;1.90;;
45476;SDS011;31958;51.756;-2.556;2023-04-15T03:40:06;6.30;;;1.60;;
45476;SDS011;31958;51.756;-2.556;2023-04-15T03:42:45;7.07;;;1.73;;
45476;SDS011;31958;51.756;-2.556;2023-04-15T03:45:11;2.88;;;1.25;;
45476;SDS011;31958;51.756;-2.556;2023-04-15T03:47:36;4.35;;;1.83;;
45476;SDS011;31958;51.756;-2.556;2023-04-15T03:50:14;5.15;;;1.52;;
45476;SDS011;31958;51.756;-2.556;2023-04-15T03:52:40;7.47;;;1.33;;
45476;SDS011;31958;51.756;-2.556;2023-04-15T03:55:05;6.55;;;1.80;;
45476;SDS011;31958;51.756;-2.556;2023-04-15T03:57:44;2.63;;;1.37;;
45476;SDS011;31958;51.756;-2.556;2023-04-15T04:00:10;3.33;;;1.65;;
45476;SDS011;31958;51.756;-2.556;2023-04-15T04:02:36;3.85;;;1.10;;
45476;SDS011;31958;51.756;-2.556;2023-04-15T04:05:14;10.70;;;1.88;;
45476;SDS011;31958;51.756;-2.556;2023-04-15T04:07:40;4.55;;;1.70;;
45476;SDS011;31958;51.756;-2.556;2023-04-15T04:10:06;3.17;;;1.45;;
45476;SDS011;31958;51.756;-2.556;2023-04-15T04:12:44;3.00;;;1.60;;
45476;SDS011;31958;51.756;-2.556;2023-04-15T04:15:10;2.85;;;1.55;;
45476;SDS011;31958;51.756;-2.556;2023-04-15T04:17:36;3.33;;;1.17;;
45476;SDS011;31958;51.756;-2.556;2023-04-15T04:20:14;2.50;;;1.52;;
45476;SDS011;31958;51.756;-2.556;2023-04-15T04:22:40;2.92;;;1.30;;
45476;SDS011;31958;51.756;-2.556;2023-04-15T04:25:06;3.97;;;1.58;;
45476;SDS011;31958;51.756;-2.556;2023-04-15T04:27:45;4.17;;;1.60;;
45476;SDS011;31958;51.756;-2.556;2023-04-15T04:30:11;4.47;;;1.67;;
45476;SDS011;31958;51.756;-2.556;2023-04-15T04:32:36;2.42;;;1.23;;
45476;SDS011;31958;51.756;-2.556;2023-04-15T04:35:15;1.67;;;1.00;;
45476;SDS011;31958;51.756;-2.556;2023-04-15T04:37:41;2.58;;;1.30;;
45476;SDS011;31958;51.756;-2.556;2023-04-15T04:40:07;2.95;;;1.60;;
45476;SDS011;31958;51.756;-2.556;2023-04-15T04:42:46;2.50;;;1.23;;
45476;SDS011;31958;51.756;-2.556;2023-04-15T04:45:11;4.63;;;1.27;;
45476;SDS011;31958;51.756;-2.556;2023-04-15T04:47:37;2.22;;;1.40;;
45476;SDS011;31958;51.756;-2.556;2023-04-15T04:50:15;3.90;;;1.52;;
45476;SDS011;31958;51.756;-2.556;2023-04-15T04:52:41;1.90;;;1.10;;
45476;SDS011;31958;51.756;-2.556;2023-04-15T04:55:06;5.47;;;1.50;;
45476;SDS011;31958;51.756;-2.556;2023-04-15T04:57:45;2.80;;;1.20;;
45476;SDS011;31958;51.756;-2.556;2023-04-15T05:00:11;2.70;;;1.30;;
45476;SDS011;31958;51.756;-2.556;2023-04-15T05:02:37;4.00;;;1.20;;
45476;SDS011;31958;51.756;-2.556;2023-04-15T05:05:15;3.38;;;1.80;;
45476;SDS011;31958;51.756;-2.556;2023-04-15T05:07:41;2.70;;;1.50;;
45476;SDS011;31958;51.756;-2.556;2023-04-15T05:10:06;1.42;;;0.98;;
45476;SDS011;31958;51.756;-2.556;2023-04-15T05:12:45;6.10;;;1.13;;
45476;SDS011;31958;51.756;-2.556;2023-04-15T05:15:11;9.65;;;1.50;;
45476;SDS011;31958;51.756;-2.556;2023-04-15T05:17:36;3.83;;;1.30;;
45476;SDS011;31958;51.756;-2.556;2023-04-15T05:20:15;1.77;;;0.90;;
45476;SDS011;31958;51.756;-2.556;2023-04-15T05:22:41;2.95;;;1.50;;
45476;SDS011;31958;51.756;-2.556;2023-04-15T05:25:06;2.50;;;1.10;;
45476;SDS011;31958;51.756;-2.556;2023-04-15T05:27:45;7.60;;;1.98;;
45476;SDS011;31958;51.756;-2.556;2023-04-15T05:30:11;3.45;;;1.38;;
45476;SDS011;31958;51.756;-2.556;2023-04-15T05:32:37;3.78;;;1.45;;
45476;SDS011;31958;51.756;-2.556;2023-04-15T05:35:15;5.65;;;1.20;;
45476;SDS011;31958;51.756;-2.556;2023-04-15T05:37:41;3.40;;;2.25;;
45476;SDS011;31958;51.756;-2.556;2023-04-15T05:40:07;2.05;;;0.93;;
45476;SDS011;31958;51.756;-2.556;2023-04-15T05:42:45;8.98;;;1.20;;
45476;SDS011;31958;51.756;-2.556;2023-04-15T05:45:11;11.80;;;1.38;;
45476;SDS011;31958;51.756;-2.556;2023-04-15T05:47:36;2.03;;;1.45;;
45476;SDS011;31958;51.756;-2.556;2023-04-15T05:50:15;5.00;;;1.30;;
45476;SDS011;31958;51.756;-2.556;2023-04-15T05:52:41;5.35;;;1.20;;
45476;SDS011;31958;51.756;-2.556;2023-04-15T05:55:06;3.67;;;1.48;;
45476;SDS011;31958;51.756;-2.556;2023-04-15T05:57:45;2.70;;;1.23;;
45476;SDS011;31958;51.756;-2.556;2023-04-15T06:00:11;2.70;;;1.17;;
45476;SDS011;31958;51.756;-2.556;2023-04-15T06:02:37;1.50;;;0.90;;
45476;SDS011;31958;51.756;-2.556;2023-04-15T06:05:15;2.20;;;0.95;;
45476;SDS011;31958;51.756;-2.556;2023-04-15T06:07:42;2.60;;;1.20;;
45476;SDS011;31958;51.756;-2.556;2023-04-15T06:10:07;3.50;;;1.15;;
45476;SDS011;31958;51.756;-2.556;2023-04-15T06:12:46;105.65;;;6.97;;
45476;SDS011;31958;51.756;-2.556;2023-04-15T06:15:12;52.30;;;3.10;;
45476;SDS011;31958;51.756;-2.556;2023-04-15T06:17:37;346.63;;;16.80;;
45476;SDS011;31958;51.756;-2.556;2023-04-15T06:20:16;537.45;;;26.60;;
45476;SDS011;31958;51.756;-2.556;2023-04-15T06:22:42;958.92;;;42.13;;
45476;SDS011;31958;51.756;-2.556;2023-04-15T06:25:07;1865.97;;;91.63;;
45476;SDS011;31958;51.756;-2.556;2023-04-15T06:27:46;1999.90;;;96.65;;
45476;SDS011;31958;51.756;-2.556;2023-04-15T06:30:12;1999.90;;;179.90;;
45476;SDS011;31958;51.756;-2.556;2023-04-15T06:32:37;1491.13;;;64.15;;
45476;SDS011;31958;51.756;-2.556;2023-04-15T06:35:16;1994.10;;;97.97;;
45476;SDS011;31958;51.756;-2.556;2023-04-15T06:37:42;871.63;;;42.53;;
45476;SDS011;31958;51.756;-2.556;2023-04-15T06:40:07;838.67;;;38.63;;
45476;SDS011;31958;51.756;-2.556;2023-04-15T06:42:46;1585.72;;;78.25;;
45476;SDS011;31958;51.756;-2.556;2023-04-15T06:45:12;908.67;;;41.38;;
45476;SDS011;31958;51.756;-2.556;2023-04-15T06:47:37;1012.00;;;46.15;;
45476;SDS011;31958;51.756;-2.556;2023-04-15T06:50:15;1453.57;;;67.07;;
45476;SDS011;31958;51.756;-2.556;2023-04-15T06:52:41;1999.90;;;134.40;;
45476;SDS011;31958;51.756;-2.556;2023-04-15T06:55:07;1028.95;;;49.65;;
45476;SDS011;31958;51.756;-2.556;2023-04-15T06:57:45;1683.82;;;84.70;;
45476;SDS011;31958;51.756;-2.556;2023-04-15T07:00:11;1674.75;;;90.68;;
45476;SDS011;31958;51.756;-2.556;2023-04-15T07:02:37;297.35;;;17.20;;
45476;SDS011;31958;51.756;-2.556;2023-04-15T07:05:15;35.45;;;5.13;;
45476;SDS011;31958;51.756;-2.556;2023-04-15T07:07:41;6.15;;;2.55;;
45476;SDS011;31958;51.756;-2.556;2023-04-15T07:10:07;105.05;;;6.97;;
45476;SDS011;31958;51.756;-2.556;2023-04-15T07:12:46;7.30;;;2.22;;
45476;SDS011;31958;51.756;-2.556;2023-04-15T07:15:12;7.67;;;3.13;;
45476;SDS011;31958;51.756;-2.556;2023-04-15T07:17:37;3.92;;;2.28;;
45476;SDS011;31958;51.756;-2.556;2023-04-15T07:20:16;5.35;;;2.22;;
45476;SDS011;31958;51.756;-2.556;2023-04-15T07:22:42;3.90;;;2.10;;
45476;SDS011;31958;51.756;-2.556;2023-04-15T07:25:08;4.13;;;1.73;;
45476;SDS011;31958;51.756;-2.556;2023-04-15T07:27:46;4.53;;;1.50;;
45476;SDS011;31958;51.756;-2.556;2023-04-15T07:30:12;2.95;;;1.20;;
45476;SDS011;31958;51.756;-2.556;2023-04-15T07:32:37;3.15;;;1.55;;
45476;SDS011;31958;51.756;-2.556;2023-04-15T07:35:16;2.83;;;1.42;;
45476;SDS011;31958;51.756;-2.556;2023-04-15T07:37:44;12.10;;;6.07;;
45476;SDS011;31958;51.756;-2.556;2023-04-15T07:40:23;9.75;;;6.95;;
45476;SDS011;31958;51.756;-2.556;2023-04-15T07:42:49;4.65;;;2.30;;
45476;SDS011;31958;51.756;-2.556;2023-04-15T07:45:14;3.97;;;1.98;;
45476;SDS011;31958;51.756;-2.556;2023-04-15T07:47:53;3.93;;;2.07;;
45476;SDS011;31958;51.756;-2.556;2023-04-15T07:50:20;5.22;;;2.53;;
45476;SDS011;31958;51.756;-2.556;2023-04-15T07:52:47;8.23;;;1.88;;
45476;SDS011;31958;51.756;-2.556;2023-04-15T07:55:26;3.25;;;1.60;;
45476;SDS011;31958;51.756;-2.556;2023-04-15T07:57:52;5.90;;;1.40;;
45476;SDS011;31958;51.756;-2.556;2023-04-15T08:00:17;4.10;;;1.80;;
45476;SDS011;31958;51.756;-2.556;2023-04-15T08:05:23;5.00;;;1.67;;
45476;SDS011;31958;51.756;-2.556;2023-04-15T08:07:49;5.85;;;1.77;;
45476;SDS011;31958;51.756;-2.556;2023-04-15T08:12:54;5.38;;;1.30;;
45476;SDS011;31958;51.756;-2.556;2023-04-15T08:15:20;4.28;;;1.50;;
45476;SDS011;31958;51.756;-2.556;2023-04-15T08:17:58;3.63;;;1.30;;
45476;SDS011;31958;51.756;-2.556;2023-04-15T08:20:26;3.70;;;1.20;;
45476;SDS011;31958;51.756;-2.556;2023-04-15T08:23:05;4.30;;;1.20;;
45476;SDS011;31958;51.756;-2.556;2023-04-15T08:25:31;5.32;;;1.40;;
45476;SDS011;31958;51.756;-2.556;2023-04-15T08:27:56;4.80;;;1.30;;
45476;SDS011;31958;51.756;-2.556;2023-04-15T08:30:37;4.63;;;1.20;;
45476;SDS011;31958;51.756;-2.556;2023-04-15T08:33:03;6.32;;;1.45;;
45476;SDS011;31958;51.756;-2.556;2023-04-15T08:35:28;3.92;;;1.48;;
45476;SDS011;31958;51.756;-2.556;2023-04-15T08:38:07;4.85;;;1.20;;
45476;SDS011;31958;51.756;-2.556;2023-04-15T08:40:40;6.90;;;1.30;;
45476;SDS011;31958;51.756;-2.556;2023-04-15T08:43:21;4.82;;;1.50;;
45476;SDS011;31958;51.756;-2.556;2023-04-15T08:45:50;7.00;;;1.50;;
45476;SDS011;31958;51.756;-2.556;2023-04-15T08:48:33;5.68;;;1.15;;
45476;SDS011;31958;51.756;-2.556;2023-04-15T08:51:02;4.72;;;1.40;;
45476;SDS011;31958;51.756;-2.556;2023-04-15T08:53:42;7.35;;;1.55;;
45476;SDS011;31958;51.756;-2.556;2023-04-15T08:56:08;4.60;;;1.58;;
45476;SDS011;31958;51.756;-2.556;2023-04-15T08:58:34;6.15;;;1.42;;
45476;SDS011;31958;51.756;-2.556;2023-04-15T09:01:13;5.15;;;1.20;;
45476;SDS011;31958;51.756;-2.556;2023-04-15T09:03:40;4.03;;;1.50;;
45476;SDS011;31958;51.756;-2.556;2023-04-15T09:06:06;4.10;;;1.33;;
45476;SDS011;31958;51.756;-2.556;2023-04-15T09:08:44;5.70;;;1.63;;
45476;SDS011;31958;51.756;-2.556;2023-04-15T09:11:10;3.75;;;1.23;;
45476;SDS011;31958;51.756;-2.556;2023-04-15T09:13:36;3.92;;;1.30;;
45476;SDS011;31958;51.756;-2.556;2023-04-15T09:16:15;3.08;;;1.20;;
45476;SDS011;31958;51.756;-2.556;2023-04-15T09:18:40;3.72;;;1.48;;
45476;SDS011;31958;51.756;-2.556;2023-04-15T09:21:12;7.97;;;1.65;;
45476;SDS011;31958;51.756;-2.556;2023-04-15T09:23:59;5.07;;;1.40;;
45476;SDS011;31958;51.756;-2.556;2023-04-15T09:26:32;3.35;;;1.20;;
45476;SDS011;31958;51.756;-2.556;2023-04-15T09:29:14;3.63;;;1.50;;
45476;SDS011;31958;51.756;-2.556;2023-04-15T09:31:42;3.75;;;1.73;;
45476;SDS011;31958;51.756;-2.556;2023-04-15T09:34:07;6.07;;;1.90;;
45476;SDS011;31958;51.756;-2.556;2023-04-15T09:41:38;4.80;;;1.45;;
45476;SDS011;31958;51.756;-2.556;2023-04-15T09:44:24;4.20;;;1.50;;
45476;SDS011;31958;51.756;-2.556;2023-04-15T09:46:50;4.93;;;1.70;;
45476;SDS011;31958;51.756;-2.556;2023-04-15T09:49:28;3.45;;;1.70;;
45476;SDS011;31958;51.756;-2.556;2023-04-15T09:52:00;5.40;;;1.38;;
45476;SDS011;31958;51.756;-2.556;2023-04-15T09:54:39;3.90;;;1.50;;
45476;SDS011;31958;51.756;-2.556;2023-04-15T09:57:06;4.53;;;1.73;;
45476;SDS011;31958;51.756;-2.556;2023-04-15T09:59:32;4.00;;;1.38;;
45476;SDS011;31958;51.756;-2.556;2023-04-15T10:02:11;4.53;;;1.85;;
45476;SDS011;31958;51.756;-2.556;2023-04-15T10:04:39;4.57;;;1.88;;
45476;SDS011;31958;51.756;-2.556;2023-04-15T10:07:05;5.35;;;1.60;;
45476;SDS011;31958;51.756;-2.556;2023-04-15T10:09:46;4.25;;;1.48;;
45476;SDS011;31958;51.756;-2.556;2023-04-15T10:12:13;4.32;;;1.40;;
45476;SDS011;31958;51.756;-2.556;2023-04-15T10:15:02;3.72;;;1.50;;
45476;SDS011;31958;51.756;-2.556;2023-04-15T10:17:32;3.47;;;1.48;;
45476;SDS011;31958;51.756;-2.556;2023-04-15T10:20:12;2.95;;;1.30;;
45476;SDS011;31958;51.756;-2.556;2023-04-15T10:22:38;7.10;;;1.60;;
45476;SDS011;31958;51.756;-2.556;2023-04-15T10:25:05;4.40;;;1.55;;
45476;SDS011;31958;51.756;-2.556;2023-04-15T10:27:43;5.45;;;1.35;;
45476;SDS011;31958;51.756;-2.556;2023-04-15T10:30:09;5.67;;;1.47;;
45476;SDS011;31958;51.756;-2.556;2023-04-15T10:32:35;4.25;;;1.40;;
45476;SDS011;31958;51.756;-2.556;2023-04-15T10:35:15;4.30;;;1.20;;
45476;SDS011;31958;51.756;-2.556;2023-04-15T10:37:40;3.40;;;1.40;;
45476;SDS011;31958;51.756;-2.556;2023-04-15T10:40:25;3.63;;;1.30;;
45476;SDS011;31958;51.756;-2.556;2023-04-15T10:43:04;3.60;;;1.42;;
45476;SDS011;31958;51.756;-2.556;2023-04-15T10:45:33;3.65;;;1.30;;
45476;SDS011;31958;51.756;-2.556;2023-04-15T10:48:15;3.13;;;1.30;;
45476;SDS011;31958;51.756;-2.556;2023-04-15T10:50:41;4.68;;;1.80;;
45476;SDS011;31958;51.756;-2.556;2023-04-15T10:53:33;2.80;;;1.13;;
45476;SDS011;31958;51.756;-2.556;2023-04-15T10:56:08;5.25;;;1.60;;
45476;SDS011;31958;51.756;-2.556;2023-04-15T10:58:41;7.22;;;1.35;;
45476;SDS011;31958;51.756;-2.556;2023-04-15T11:01:07;2.55;;;1.20;;
45476;SDS011;31958;51.756;-2.556;2023-04-15T11:03:41;4.78;;;1.48;;
45476;SDS011;31958;51.756;-2.556;2023-04-15T11:06:15;4.55;;;1.48;;
45476;SDS011;31958;51.756;-2.556;2023-04-15T11:08:57;5.43;;;1.40;;
45476;SDS011;31958;51.756;-2.556;2023-04-15T11:14:40;5.63;;;1.50;;
45476;SDS011;31958;51.756;-2.556;2023-04-15T11:17:12;7.40;;;1.60;;
45476;SDS011;31958;51.756;-2.556;2023-04-15T11:19:37;4.78;;;1.48;;
45476;SDS011;31958;51.756;-2.556;2023-04-15T11:22:10;3.15;;;1.40;;
45476;SDS011;31958;51.756;-2.556;2023-04-15T11:24:48;5.00;;;1.55;;
45476;SDS011;31958;51.756;-2.556;2023-04-15T11:27:21;6.10;;;1.58;;
45476;SDS011;31958;51.756;-2.556;2023-04-15T11:29:54;3.28;;;1.35;;
45476;SDS011;31958;51.756;-2.556;2023-04-15T11:32:20;6.72;;;1.50;;
45476;SDS011;31958;51.756;-2.556;2023-04-15T11:34:52;4.00;;;1.30;;
45476;SDS011;31958;51.756;-2.556;2023-04-15T11:37:28;4.10;;;1.45;;
45476;SDS011;31958;51.756;-2.556;2023-04-15T11:40:01;3.75;;;1.52;;
45476;SDS011;31958;51.756;-2.556;2023-04-15T11:42:34;3.88;;;1.45;;
45476;SDS011;31958;51.756;-2.556;2023-04-15T11:45:09;4.80;;;1.73;;
45476;SDS011;31958;51.756;-2.556;2023-04-15T11:47:48;4.35;;;1.50;;
45476;SDS011;31958;51.756;-2.556;2023-04-15T11:50:20;6.50;;;1.50;;
45476;SDS011;31958;51.756;-2.556;2023-04-15T11:53:00;3.08;;;1.38;;
45476;SDS011;31958;51.756;-2.556;2023-04-15T11:55:45;3.47;;;1.30;;
45476;SDS011;31958;51.756;-2.556;2023-04-15T11:58:18;2.33;;;1.30;;
45476;SDS011;31958;51.756;-2.556;2023-04-15T12:00:53;3.65;;;1.50;;
45476;SDS011;31958;51.756;-2.556;2023-04-15T12:03:29;3.80;;;1.30;;
45476;SDS011;31958;51.756;-2.556;2023-04-15T12:11:44;5.05;;;1.50;;
45476;SDS011;31958;51.756;-2.556;2023-04-15T12:17:01;4.47;;;1.52;;
45476;SDS011;31958;51.756;-2.556;2023-04-15T12:19:39;3.72;;;1.63;;
45476;SDS011;31958;51.756;-2.556;2023-04-15T12:22:16;5.53;;;1.35;;
45476;SDS011;31958;51.756;-2.556;2023-04-15T12:24:53;4.97;;;1.20;;
45476;SDS011;31958;51.756;-2.556;2023-04-15T12:27:28;2.20;;;1.23;;
45476;SDS011;31958;51.756;-2.556;2023-04-15T12:30:04;3.55;;;1.33;;
45476;SDS011;31958;51.756;-2.556;2023-04-15T12:32:36;4.85;;;1.58;;
45476;SDS011;31958;51.756;-2.556;2023-04-15T12:35:08;1.90;;;1.00;;
45476;SDS011;31958;51.756;-2.556;2023-04-15T12:37:33;3.97;;;1.38;;
45476;SDS011;31958;51.756;-2.556;2023-04-15T12:40:07;5.00;;;1.63;;
45476;SDS011;31958;51.756;-2.556;2023-04-15T12:42:39;4.20;;;1.45;;
45476;SDS011;31958;51.756;-2.556;2023-04-15T12:45:04;3.00;;;1.30;;
45476;SDS011;31958;51.756;-2.556;2023-04-15T12:47:37;5.10;;;1.50;;
45476;SDS011;31958;51.756;-2.556;2023-04-15T12:50:09;2.90;;;1.13;;
45476;SDS011;31958;51.756;-2.556;2023-04-15T12:52:41;3.13;;;1.10;;
45476;SDS011;31958;51.756;-2.556;2023-04-15T12:55:06;2.85;;;1.35;;
45476;SDS011;31958;51.756;-2.556;2023-04-15T12:57:38;3.17;;;1.23;;
45476;SDS011;31958;51.756;-2.556;2023-04-15T13:00:10;2.13;;;1.15;;
45476;SDS011;31958;51.756;-2.556;2023-04-15T13:02:36;3.78;;;1.30;;
45476;SDS011;31958;51.756;-2.556;2023-04-15T13:05:08;2.13;;;1.20;;
45476;SDS011;31958;51.756;-2.556;2023-04-15T13:07:40;3.80;;;1.20;;
45476;SDS011;31958;51.756;-2.556;2023-04-15T13:10:06;9.97;;;1.63;;
45476;SDS011;31958;51.756;-2.556;2023-04-15T13:12:38;3.08;;;1.10;;
45476;SDS011;31958;51.756;-2.556;2023-04-15T13:15:10;4.38;;;1.35;;
45476;SDS011;31958;51.756;-2.556;2023-04-15T13:17:35;7.05;;;1.35;;
45476;SDS011;31958;51.756;-2.556;2023-04-15T13:20:08;3.13;;;1.10;;
45476;SDS011;31958;51.756;-2.556;2023-04-15T13:22:41;2.40;;;1.20;;
45476;SDS011;31958;51.756;-2.556;2023-04-15T13:25:06;4.82;;;1.45;;
45476;SDS011;31958;51.756;-2.556;2023-04-15T13:27:39;5.72;;;2.03;;
45476;SDS011;31958;51.756;-2.556;2023-04-15T13:30:11;2.90;;;1.10;;
45476;SDS011;31958;51.756;-2.556;2023-04-15T13:32:37;2.08;;;1.00;;
45476;SDS011;31958;51.756;-2.556;2023-04-15T13:35:09;3.63;;;1.08;;
45476;SDS011;31958;51.756;-2.556;2023-04-15T13:37:41;2.53;;;1.27;;
45476;SDS011;31958;51.756;-2.556;2023-04-15T13:40:06;3.35;;;1.05;;
45476;SDS011;31958;51.756;-2.556;2023-04-15T13:42:41;2.00;;;1.10;;
45476;SDS011;31958;51.756;-2.556;2023-04-15T13:45:13;3.03;;;1.10;;
45476;SDS011;31958;51.756;-2.556;2023-04-15T13:47:39;3.00;;;1.30;;
45476;SDS011;31958;51.756;-2.556;2023-04-15T13:50:18;2.83;;;1.20;;
45476;SDS011;31958;51.756;-2.556;2023-04-15T13:52:43;4.80;;;1.23;;
45476;SDS011;31958;51.756;-2.556;2023-04-15T13:55:08;4.53;;;1.30;;
45476;SDS011;31958;51.756;-2.556;2023-04-15T13:57:48;3.80;;;1.20;;
45476;SDS011;31958;51.756;-2.556;2023-04-15T14:00:14;4.35;;;1.10;;
45476;SDS011;31958;51.756;-2.556;2023-04-15T14:02:40;3.58;;;1.08;;
45476;SDS011;31958;51.756;-2.556;2023-04-15T14:05:19;3.13;;;1.00;;
45476;SDS011;31958;51.756;-2.556;2023-04-15T14:07:44;3.28;;;0.90;;
45476;SDS011;31958;51.756;-2.556;2023-04-15T14:10:09;2.38;;;1.05;;
45476;SDS011;31958;51.756;-2.556;2023-04-15T14:12:49;3.22;;;1.02;;
45476;SDS011;31958;51.756;-2.556;2023-04-15T14:15:14;3.72;;;1.20;;
45476;SDS011;31958;51.756;-2.556;2023-04-15T14:17:40;2.70;;;1.10;;
45476;SDS011;31958;51.756;-2.556;2023-04-15T14:20:19;2.55;;;0.80;;
45476;SDS011;31958;51.756;-2.556;2023-04-15T14:22:44;2.17;;;0.80;;
45476;SDS011;31958;51.756;-2.556;2023-04-15T14:25:10;5.75;;;0.88;;
45476;SDS011;31958;51.756;-2.556;2023-04-15T14:27:49;2.28;;;0.80;;
45476;SDS011;31958;51.756;-2.556;2023-04-15T14:30:15;2.38;;;0.93;;
45476;SDS011;31958;51.756;-2.556;2023-04-15T14:32:41;2.17;;;1.00;;
45476;SDS011;31958;51.756;-2.556;2023-04-15T14:35:20;2.03;;;1.17;;
45476;SDS011;31958;51.756;-2.556;2023-04-15T14:37:45;2.17;;;1.00;;
45476;SDS011;31958;51.756;-2.556;2023-04-15T14:40:10;1.80;;;0.90;;
45476;SDS011;31958;51.756;-2.556;2023-04-15T14:42:50;1.55;;;0.90;;
45476;SDS011;31958;51.756;-2.556;2023-04-15T14:45:15;2.65;;;0.98;;
45476;SDS011;31958;51.756;-2.556;2023-04-15T14:47:41;2.85;;;0.80;;
45476;SDS011;31958;51.756;-2.556;2023-04-15T14:50:20;1.50;;;0.60;;
45476;SDS011;31958;51.756;-2.556;2023-04-15T14:52:45;2.88;;;0.85;;
45476;SDS011;31958;51.756;-2.556;2023-04-15T14:55:11;4.88;;;0.98;;
45476;SDS011;31958;51.756;-2.556;2023-04-15T14:57:50;1.48;;;0.93;;
45476;SDS011;31958;51.756;-2.556;2023-04-15T15:00:15;2.30;;;0.93;;
45476;SDS011;31958;51.756;-2.556;2023-04-15T15:02:40;3.88;;;1.40;;
45476;SDS011;31958;51.756;-2.556;2023-04-15T15:05:20;3.05;;;0.80;;
45476;SDS011;31958;51.756;-2.556;2023-04-15T15:07:45;2.70;;;1.17;;
45476;SDS011;31958;51.756;-2.556;2023-04-15T15:10:10;3.67;;;1.13;;
45476;SDS011;31958;51.756;-2.556;2023-04-15T15:12:50;3.17;;;1.45;;
45476;SDS011;31958;51.756;-2.556;2023-04-15T15:15:15;2.35;;;1.10;;